Time;durP1;ratioP1;P1;durP2;ratioP2;P2;SDS_P1;SDS_P2;PMS_P1;PMS_P2;Temp;Humidity;BMP_temperature;BMP_pressure;BME280_temperature;BME280_humidity;BME280_pressure;Samples;Min_cycle;Max_cycle;Signal;HPM_P1;HPM_P2
2021/09/23 00:05:00;;;;;;;5.30;4.37;;;18.50;55.60;;;;;;5026754;28;20208;-45
2021/09/23 00:07:26;;;;;;;4.80;3.80;;;18.60;54.90;;;;;;5024672;28;20443;-47
2021/09/23 00:09:52;;;;;;;4.27;3.97;;;18.50;54.70;;;;;;5029161;28;20644;-46
2021/09/23 00:12:18;;;;;;;6.30;4.73;;;18.40;55.90;;;;;;5037806;28;20204;-47
2021/09/23 00:14:43;;;;;;;4.20;3.80;;;18.20;55.80;;;;;;5031262;28;21342;-45
2021/09/23 00:17:09;;;;;;;5.07;4.57;;;17.30;57.00;;;;;;5023653;28;20693;-51
2021/09/23 00:19:35;;;;;;;5.00;4.43;;;16.80;58.10;;;;;;5023095;28;20193;-46
2021/09/23 00:22:00;;;;;;;4.90;3.90;;;16.60;58.90;;;;;;5029286;28;20189;-47
2021/09/23 00:24:26;;;;;;;5.03;3.97;;;16.50;59.00;;;;;;5029070;28;20197;-46
2021/09/23 00:26:52;;;;;;;4.43;4.03;;;16.50;60.30;;;;;;5029560;28;20189;-46
2021/09/23 00:29:17;;;;;;;5.97;5.00;;;17.00;60.10;;;;;;5037189;28;20455;-47
2021/09/23 00:31:43;;;;;;;4.10;3.70;;;17.40;59.40;;;;;;5032200;28;20315;-47
2021/09/23 00:34:09;;;;;;;5.53;4.90;;;17.60;57.60;;;;;;5038638;28;20201;-51
2021/09/23 00:36:34;;;;;;;4.33;3.93;;;17.80;57.20;;;;;;5029542;28;20331;-47
2021/09/23 00:39:00;;;;;;;7.17;3.83;;;18.00;56.60;;;;;;5026761;28;20934;-46
2021/09/23 00:41:26;;;;;;;6.67;3.80;;;18.20;56.60;;;;;;5032004;28;20201;-46
2021/09/23 00:43:51;;;;;;;4.60;4.20;;;18.40;56.40;;;;;;5034935;28;20192;-47
2021/09/23 00:46:17;;;;;;;4.60;3.83;;;18.40;55.20;;;;;;5036430;28;20227;-50
2021/09/23 00:48:45;;;;;;;8.97;4.07;;;18.50;55.40;;;;;;5036537;28;20680;-48
2021/09/23 00:51:11;;;;;;;5.33;4.03;;;18.60;55.30;;;;;;5033033;28;20258;-48
2021/09/23 00:53:38;;;;;;;5.27;3.70;;;18.70;54.80;;;;;;5039145;28;21526;-47
2021/09/23 00:56:04;;;;;;;4.80;4.30;;;18.80;54.50;;;;;;5031055;28;20201;-48
2021/09/23 00:58:30;;;;;;;6.83;4.27;;;18.80;54.30;;;;;;5032635;28;20532;-51
2021/09/23 01:00:55;;;;;;;3.97;3.50;;;18.80;54.20;;;;;;5028367;28;20228;-50
2021/09/23 01:03:21;;;;;;;4.93;4.20;;;18.80;53.90;;;;;;5028005;28;20197;-47
2021/09/23 01:05:46;;;;;;;5.90;4.70;;;18.80;53.60;;;;;;5030619;28;20193;-47
2021/09/23 01:08:12;;;;;;;4.97;4.57;;;18.80;54.40;;;;;;5026974;28;20193;-49
2021/09/23 01:10:38;;;;;;;5.30;4.80;;;18.80;53.60;;;;;;5030611;28;20190;-47
2021/09/23 01:13:04;;;;;;;4.90;4.40;;;18.80;52.90;;;;;;5031203;28;20189;-48
2021/09/23 01:15:29;;;;;;;6.03;4.20;;;18.80;52.70;;;;;;5029302;28;20196;-48
2021/09/23 01:17:55;;;;;;;5.03;4.53;;;18.70;52.60;;;;;;5030612;28;20236;-48
2021/09/23 01:20:20;;;;;;;6.90;4.50;;;18.70;53.20;;;;;;5030815;28;20227;-53
2021/09/23 01:22:47;;;;;;;5.03;4.33;;;18.70;53.00;;;;;;5030033;28;20197;-51
2021/09/23 01:25:15;;;;;;;4.03;3.63;;;18.70;53.80;;;;;;5030420;28;20254;-48
2021/09/23 01:27:41;;;;;;;5.97;4.10;;;18.70;54.60;;;;;;5034852;28;20486;-48
2021/09/23 01:30:07;;;;;;;4.20;3.90;;;18.80;54.60;;;;;;5032952;28;20563;-48
2021/09/23 01:32:32;;;;;;;5.23;3.90;;;18.80;54.10;;;;;;5031728;28;20291;-47
2021/09/23 01:34:58;;;;;;;4.33;3.93;;;18.80;54.00;;;;;;5028571;28;20489;-48
2021/09/23 01:37:24;;;;;;;6.53;4.10;;;18.80;53.60;;;;;;5031208;28;20273;-47
2021/09/23 01:39:49;;;;;;;3.93;3.60;;;18.80;53.20;;;;;;5035082;28;20225;-49
2021/09/23 01:42:15;;;;;;;3.40;3.10;;;18.80;53.30;;;;;;5032935;28;20197;-48
2021/09/23 01:44:40;;;;;;;4.50;4.10;;;18.90;53.30;;;;;;5032965;28;20242;-50
2021/09/23 01:47:06;;;;;;;5.30;4.10;;;18.90;52.90;;;;;;5031124;28;20235;-51
2021/09/23 01:49:32;;;;;;;5.60;3.90;;;18.90;52.70;;;;;;5038386;28;20220;-50
2021/09/23 01:51:57;;;;;;;4.27;3.87;;;18.90;53.40;;;;;;5038959;28;20541;-48
2021/09/23 01:54:23;;;;;;;7.33;3.97;;;19.00;53.30;;;;;;5041423;28;20208;-47
2021/09/23 01:56:53;;;;;;;4.30;3.90;;;19.00;52.80;;;;;;5031863;28;20208;-48
2021/09/23 01:59:20;;;;;;;4.13;3.83;;;19.00;52.90;;;;;;5033799;28;20486;-49
2021/09/23 02:01:45;;;;;;;5.07;3.50;;;19.00;53.00;;;;;;5032791;28;20858;-49
2021/09/23 02:04:11;;;;;;;4.17;3.60;;;19.00;52.70;;;;;;5048832;28;20514;-49
2021/09/23 02:06:37;;;;;;;3.77;3.47;;;19.00;52.90;;;;;;5034773;28;20193;-48
2021/09/23 02:09:03;;;;;;;4.10;3.20;;;19.00;52.60;;;;;;5036696;28;20201;-50
2021/09/23 02:11:28;;;;;;;5.97;4.73;;;19.00;52.70;;;;;;5032473;28;20198;-52
2021/09/23 02:13:54;;;;;;;5.43;3.90;;;19.00;52.70;;;;;;5035453;28;20508;-48
2021/09/23 02:16:20;;;;;;;4.73;4.13;;;19.00;52.90;;;;;;5036381;28;20294;-49
2021/09/23 02:18:45;;;;;;;4.60;3.70;;;18.90;52.70;;;;;;5036611;28;20747;-49
2021/09/23 02:21:12;;;;;;;4.77;3.80;;;18.90;52.80;;;;;;5040341;28;20301;-47
2021/09/23 02:23:37;;;;;;;4.37;3.97;;;18.90;53.30;;;;;;5035606;28;20199;-48
2021/09/23 02:26:03;;;;;;;4.07;3.70;;;18.90;52.50;;;;;;5034075;28;20447;-49
2021/09/23 02:28:30;;;;;;;6.20;3.60;;;18.90;52.40;;;;;;5033680;28;20197;-53
2021/09/23 02:30:56;;;;;;;4.10;3.40;;;18.90;52.30;;;;;;5033882;28;20275;-50
2021/09/23 02:33:22;;;;;;;3.63;3.33;;;18.90;52.70;;;;;;5029645;28;20471;-48
2021/09/23 02:35:47;;;;;;;4.13;3.73;;;18.80;53.00;;;;;;5031194;28;20479;-49
2021/09/23 02:38:13;;;;;;;6.07;3.53;;;18.80;52.70;;;;;;5023289;28;20491;-52
2021/09/23 02:40:39;;;;;;;4.00;3.40;;;18.80;52.70;;;;;;5034525;28;20271;-52
2021/09/23 02:43:04;;;;;;;5.00;3.80;;;18.80;52.90;;;;;;5035189;28;20225;-50
2021/09/23 02:45:30;;;;;;;3.30;3.00;;;18.80;52.90;;;;;;5034369;28;20197;-49
2021/09/23 02:47:55;;;;;;;3.80;3.50;;;18.80;52.90;;;;;;5034072;28;20476;-49
2021/09/23 02:50:21;;;;;;;4.30;4.00;;;18.80;53.00;;;;;;5032140;28;20192;-51
2021/09/23 02:52:47;;;;;;;3.90;3.60;;;18.80;53.00;;;;;;5036800;28;20216;-52
2021/09/23 02:55:12;;;;;;;3.73;3.43;;;18.80;53.20;;;;;;5031784;28;20232;-51
2021/09/23 02:57:38;;;;;;;4.47;3.10;;;18.70;52.60;;;;;;5036955;28;20291;-49
2021/09/23 03:00:05;;;;;;;4.67;3.67;;;18.70;53.10;;;;;;5032855;28;20201;-49
2021/09/23 03:02:30;;;;;;;4.50;4.10;;;18.70;53.30;;;;;;5030967;28;20189;-50
2021/09/23 03:04:56;;;;;;;4.67;4.17;;;18.80;53.10;;;;;;5030081;28;20466;-48
2021/09/23 03:07:22;;;;;;;3.80;3.50;;;18.80;52.50;;;;;;5032394;28;20581;-50
2021/09/23 03:09:47;;;;;;;4.80;4.40;;;18.80;52.60;;;;;;5027249;28;20201;-49
2021/09/23 03:12:13;;;;;;;4.63;4.23;;;18.70;52.40;;;;;;5036744;28;20189;-49
2021/09/23 03:14:38;;;;;;;4.67;4.27;;;18.70;52.10;;;;;;5032247;28;20564;-49
2021/09/23 03:17:04;;;;;;;4.00;3.67;;;18.70;52.30;;;;;;5037538;28;20337;-47
2021/09/23 03:19:29;;;;;;;3.87;3.57;;;18.70;52.80;;;;;;5035838;28;20225;-48
2021/09/23 03:21:55;;;;;;;7.40;3.87;;;18.70;52.70;;;;;;5028370;28;20193;-49
2021/09/23 03:24:21;;;;;;;3.70;3.40;;;18.70;52.60;;;;;;5030204;28;20204;-47
2021/09/23 03:26:47;;;;;;;3.97;3.67;;;18.70;53.10;;;;;;5027333;28;20204;-48
2021/09/23 03:29:14;;;;;;;4.73;3.77;;;18.70;52.80;;;;;;5034326;28;20440;-49
2021/09/23 03:31:39;;;;;;;3.30;3.10;;;18.70;52.60;;;;;;5027020;28;20617;-48
2021/09/23 03:34:06;;;;;;;3.60;3.30;;;18.70;51.60;;;;;;5033738;28;20494;-53
2021/09/23 03:36:32;;;;;;;4.03;3.57;;;18.60;51.20;;;;;;5035203;28;20216;-47
2021/09/23 03:38:58;;;;;;;3.37;3.00;;;18.50;51.30;;;;;;5029440;28;20937;-50
2021/09/23 03:41:24;;;;;;;4.77;3.53;;;18.40;52.40;;;;;;5032309;28;20460;-47
2021/09/23 03:43:50;;;;;;;4.80;4.40;;;18.40;52.20;;;;;;5031751;28;20799;-52
2021/09/23 03:46:16;;;;;;;4.30;3.80;;;18.40;51.60;;;;;;5030957;28;20474;-48
2021/09/23 03:48:41;;;;;;;4.57;4.17;;;18.30;51.60;;;;;;5031504;28;20852;-49
2021/09/23 03:51:07;;;;;;;3.87;3.53;;;18.20;51.80;;;;;;5037082;28;20197;-47
2021/09/23 03:53:38;;;;;;;4.33;3.93;;;18.20;52.50;;;;;;5031607;28;20196;-49
2021/09/23 03:56:07;;;;;;;4.20;3.80;;;18.20;53.00;;;;;;5031368;28;20272;-48
2021/09/23 03:58:33;;;;;;;4.47;4.13;;;18.20;52.10;;;;;;5028924;28;20846;-48
2021/09/23 04:00:59;;;;;;;6.00;4.53;;;18.10;52.30;;;;;;5028259;28;20466;-48
2021/09/23 04:03:24;;;;;;;4.43;4.03;;;18.10;52.70;;;;;;5034574;28;20486;-48
2021/09/23 04:05:51;;;;;;;3.87;3.47;;;18.00;52.90;;;;;;5029044;28;20626;-50
2021/09/23 04:08:16;;;;;;;7.30;3.50;;;18.00;51.80;;;;;;5028488;28;20201;-47
2021/09/23 04:10:42;;;;;;;6.43;4.00;;;17.80;52.40;;;;;;5035418;28;20452;-47
2021/09/23 04:13:07;;;;;;;3.83;3.50;;;17.70;53.20;;;;;;5032957;28;20201;-49
2021/09/23 04:15:33;;;;;;;3.73;3.40;;;17.80;53.50;;;;;;5030705;28;20192;-52
2021/09/23 04:17:58;;;;;;;3.97;3.67;;;17.80;54.10;;;;;;5036222;28;20252;-50
2021/09/23 04:20:24;;;;;;;3.77;3.47;;;17.70;53.20;;;;;;5029262;28;20197;-48
2021/09/23 04:22:50;;;;;;;4.87;3.73;;;17.80;53.70;;;;;;5031608;28;20616;-49
2021/09/23 04:25:15;;;;;;;4.20;3.80;;;17.70;53.50;;;;;;5028110;28;20737;-50
2021/09/23 04:27:41;;;;;;;4.13;3.70;;;17.70;53.60;;;;;;5036422;28;20216;-49
2021/09/23 04:30:07;;;;;;;5.73;3.23;;;17.80;53.40;;;;;;5032227;28;20231;-48
2021/09/23 04:32:33;;;;;;;5.70;4.37;;;17.80;53.30;;;;;;5033497;28;20188;-50
2021/09/23 04:34:59;;;;;;;6.37;3.63;;;17.80;53.70;;;;;;5029398;28;20518;-50
2021/09/23 04:37:25;;;;;;;4.37;4.00;;;17.90;53.70;;;;;;5032569;28;20229;-48
2021/09/23 04:39:50;;;;;;;7.03;4.23;;;17.90;53.40;;;;;;5028409;28;20192;-49
2021/09/23 04:42:16;;;;;;;6.57;4.17;;;17.80;51.50;;;;;;5037393;28;20193;-49
2021/09/23 04:44:41;;;;;;;4.70;4.30;;;17.50;50.90;;;;;;5031628;28;20188;-54
2021/09/23 04:47:07;;;;;;;4.90;4.40;;;17.30;51.10;;;;;;5034219;28;20274;-52
2021/09/23 04:49:33;;;;;;;4.63;4.23;;;17.00;51.80;;;;;;5031801;28;20197;-50
2021/09/23 04:51:59;;;;;;;7.33;4.27;;;16.70;52.70;;;;;;5029554;28;20511;-49
2021/09/23 04:54:25;;;;;;;5.53;4.50;;;16.40;53.40;;;;;;5025106;28;20193;-52
2021/09/23 04:56:50;;;;;;;5.43;4.70;;;16.20;53.50;;;;;;5029028;28;20451;-49
2021/09/23 04:59:16;;;;;;;6.87;4.30;;;15.90;54.50;;;;;;5029327;28;20327;-49
2021/09/23 05:01:42;;;;;;;5.40;4.70;;;15.70;55.40;;;;;;5034377;28;20774;-51
2021/09/23 05:04:07;;;;;;;7.47;5.33;;;15.60;55.70;;;;;;5040288;28;20197;-47
2021/09/23 05:06:33;;;;;;;6.70;4.63;;;15.50;55.40;;;;;;5030736;28;20636;-50
2021/09/23 05:08:59;;;;;;;5.13;4.57;;;15.50;55.50;;;;;;5029518;28;20638;-50
2021/09/23 05:11:25;;;;;;;5.30;4.70;;;15.50;55.70;;;;;;5030340;28;20272;-48
2021/09/23 05:13:52;;;;;;;8.20;3.70;;;15.40;56.10;;;;;;5030432;28;20247;-48
2021/09/23 05:16:18;;;;;;;6.73;4.50;;;15.40;64.40;;;;;;5030183;28;20435;-52
2021/09/23 05:18:44;;;;;;;4.70;4.20;;;15.70;60.10;;;;;;5028316;28;20538;-52
2021/09/23 05:21:10;;;;;;;5.17;4.67;;;16.10;57.70;;;;;;5030568;28;20562;-49
2021/09/23 05:23:35;;;;;;;5.93;4.90;;;16.40;56.00;;;;;;5029011;28;20492;-49
2021/09/23 05:26:01;;;;;;;4.53;4.13;;;16.70;54.90;;;;;;5034821;28;20231;-54
2021/09/23 05:28:27;;;;;;;7.73;4.90;;;16.90;54.10;;;;;;5029546;28;20195;-53
2021/09/23 05:30:52;;;;;;;5.13;4.63;;;17.20;53.40;;;;;;5027756;28;20192;-49
2021/09/23 05:33:18;;;;;;;5.73;4.30;;;17.30;52.40;;;;;;5030023;28;20227;-48
2021/09/23 05:35:45;;;;;;;4.83;4.33;;;17.30;52.30;;;;;;5032309;28;20266;-49
2021/09/23 05:38:11;;;;;;;7.00;4.67;;;17.40;52.00;;;;;;5034138;28;20695;-50
2021/09/23 05:40:37;;;;;;;10.80;3.70;;;17.50;51.60;;;;;;5032550;28;20454;-49
2021/09/23 05:43:03;;;;;;;4.40;3.80;;;17.60;51.30;;;;;;5027754;28;20197;-47
2021/09/23 05:45:28;;;;;;;4.07;3.67;;;17.70;51.10;;;;;;5029389;28;20982;-50
2021/09/23 05:47:54;;;;;;;8.40;4.50;;;17.80;50.90;;;;;;5027337;28;20193;-47
2021/09/23 05:50:20;;;;;;;8.70;4.37;;;17.80;50.70;;;;;;5028759;28;20197;-48
2021/09/23 05:52:45;;;;;;;4.67;4.10;;;17.80;50.50;;;;;;5029517;28;20197;-49
2021/09/23 05:55:11;;;;;;;5.07;4.40;;;17.80;50.50;;;;;;5029714;28;20876;-48
2021/09/23 05:57:37;;;;;;;4.47;4.07;;;17.70;50.70;;;;;;5029966;28;20651;-48
2021/09/23 06:00:18;;;;;;;10.43;3.90;;;17.70;51.10;;;;;;5026114;28;20204;-48
2021/09/23 06:02:45;;;;;;;5.53;4.63;;;17.80;54.20;;;;;;5030183;28;20311;-49
2021/09/23 06:05:12;;;;;;;5.73;4.20;;;17.90;52.90;;;;;;5029272;28;20440;-47
2021/09/23 06:07:41;;;;;;;4.67;4.20;;;18.00;51.50;;;;;;5026634;28;20950;-51
2021/09/23 06:10:11;;;;;;;5.07;4.10;;;18.10;51.20;;;;;;5020121;28;21072;-51
2021/09/23 06:12:36;;;;;;;5.53;4.90;;;18.10;50.80;;;;;;5031315;28;20511;-49
2021/09/23 06:15:03;;;;;;;5.73;4.37;;;18.10;51.00;;;;;;5028736;28;20893;-51
2021/09/23 06:17:28;;;;;;;4.53;3.77;;;18.10;51.00;;;;;;5027952;28;20312;-48
2021/09/23 06:19:54;;;;;;;6.50;4.63;;;18.20;51.10;;;;;;5028781;28;20516;-48
2021/09/23 06:22:19;;;;;;;5.80;3.33;;;18.20;51.20;;;;;;5029581;28;20244;-48
2021/09/23 06:24:45;;;;;;;5.97;2.93;;;18.20;53.70;;;;;;5029329;28;20558;-47
2021/09/23 06:27:11;;;;;;;3.90;3.50;;;18.30;54.80;;;;;;5031551;28;20193;-48
2021/09/23 06:29:36;;;;;;;4.10;3.17;;;18.40;54.60;;;;;;5032100;28;20208;-47
2021/09/23 06:32:03;;;;;;;4.93;3.20;;;18.60;54.70;;;;;;5033713;28;20649;-48
2021/09/23 06:34:29;;;;;;;2.77;2.57;;;18.90;54.30;;;;;;5032258;28;20197;-49
2021/09/23 06:36:54;;;;;;;4.40;3.53;;;19.10;53.50;;;;;;5033682;28;20486;-49
2021/09/23 06:39:20;;;;;;;3.67;3.37;;;19.40;53.10;;;;;;5031141;28;20225;-48
2021/09/23 06:41:46;;;;;;;3.67;3.20;;;19.60;52.50;;;;;;5033996;28;20193;-48
2021/09/23 06:44:11;;;;;;;5.43;3.50;;;19.90;51.90;;;;;;5031696;28;20221;-49
2021/09/23 06:46:37;;;;;;;4.30;3.10;;;20.10;51.30;;;;;;5031572;28;20197;-52
2021/09/23 06:49:03;;;;;;;3.77;3.47;;;20.40;50.90;;;;;;5032970;28;20197;-48
2021/09/23 06:51:29;;;;;;;4.67;3.20;;;20.70;50.30;;;;;;5033706;28;20189;-46
2021/09/23 06:53:56;;;;;;;6.07;3.80;;;21.00;49.40;;;;;;5032097;28;20490;-46
2021/09/23 06:56:22;;;;;;;3.57;3.23;;;21.10;48.90;;;;;;5033321;28;20443;-48
2021/09/23 06:58:48;;;;;;;3.97;3.43;;;21.10;49.00;;;;;;5032347;28;20853;-49
2021/09/23 07:01:13;;;;;;;3.70;3.23;;;21.30;48.80;;;;;;5031074;28;20255;-49
2021/09/23 07:03:39;;;;;;;3.63;3.23;;;21.40;48.60;;;;;;5027302;28;20193;-47
2021/09/23 07:06:05;;;;;;;3.17;2.97;;;21.50;48.20;;;;;;5032817;28;20304;-47
2021/09/23 07:08:30;;;;;;;4.43;3.47;;;21.50;48.50;;;;;;5031843;28;20197;-46
2021/09/23 07:10:56;;;;;;;3.10;2.80;;;21.60;48.10;;;;;;5033522;28;20219;-49
2021/09/23 07:13:21;;;;;;;3.50;3.13;;;21.70;48.00;;;;;;5029893;28;20204;-47
2021/09/23 07:15:47;;;;;;;4.10;3.40;;;21.70;47.80;;;;;;5031135;28;20194;-49
2021/09/23 07:18:13;;;;;;;4.33;3.70;;;21.80;47.90;;;;;;5031208;28;20688;-47
2021/09/23 07:20:38;;;;;;;8.70;4.50;;;21.90;47.80;;;;;;5033178;28;20618;-47
2021/09/23 07:23:04;;;;;;;5.17;4.27;;;22.10;47.70;;;;;;5041638;28;20692;-47
2021/09/23 07:25:30;;;;;;;4.20;3.80;;;22.40;46.60;;;;;;5035750;28;20294;-49
2021/09/23 07:27:57;;;;;;;7.57;4.00;;;22.50;46.70;;;;;;5029991;28;20676;-49
2021/09/23 07:30:23;;;;;;;4.53;3.93;;;22.50;46.70;;;;;;5031666;28;20547;-47
2021/09/23 07:32:49;;;;;;;5.13;3.43;;;22.50;46.90;;;;;;5032021;28;20428;-47
2021/09/23 07:35:15;;;;;;;6.10;4.13;;;22.60;47.50;;;;;;5031999;28;20510;-49
2021/09/23 07:37:41;;;;;;;7.23;5.30;;;23.10;46.80;;;;;;5031169;28;20475;-47
2021/09/23 07:40:08;;;;;;;8.80;4.30;;;23.00;46.50;;;;;;5028841;28;20421;-47
2021/09/23 07:42:34;;;;;;;4.90;4.50;;;22.70;46.90;;;;;;5032472;28;20668;-48
2021/09/23 07:45:00;;;;;;;5.20;4.50;;;22.60;47.50;;;;;;5030175;28;20448;-48
2021/09/23 07:47:26;;;;;;;4.70;4.30;;;22.70;47.20;;;;;;5032528;28;22362;-50
2021/09/23 07:49:51;;;;;;;7.53;5.60;;;23.00;47.40;;;;;;5031954;28;20432;-47
2021/09/23 07:52:17;;;;;;;5.57;5.07;;;23.50;45.90;;;;;;5032535;28;20633;-48
2021/09/23 07:54:43;;;;;;;9.10;6.50;;;23.70;44.90;;;;;;5031574;28;20181;-48
2021/09/23 07:57:09;;;;;;;7.23;6.10;;;23.60;44.20;;;;;;5031941;28;20462;-47
2021/09/23 07:59:34;;;;;;;6.57;6.00;;;23.50;44.90;;;;;;5032253;28;20213;-48
2021/09/23 08:02:00;;;;;;;8.00;6.90;;;23.50;45.10;;;;;;5032140;28;20189;-46
2021/09/23 08:04:26;;;;;;;7.17;5.80;;;23.40;45.30;;;;;;5030668;28;20205;-47
2021/09/23 08:06:51;;;;;;;5.70;5.20;;;23.40;45.60;;;;;;5029397;28;20189;-47
2021/09/23 08:09:17;;;;;;;7.83;6.23;;;23.50;46.00;;;;;;5031295;28;20546;-50
2021/09/23 08:11:43;;;;;;;10.97;5.40;;;23.40;46.00;;;;;;5031680;28;20204;-52
2021/09/23 08:14:09;;;;;;;6.30;5.80;;;23.40;46.00;;;;;;5030785;28;20204;-48
2021/09/23 08:16:34;;;;;;;5.87;5.27;;;23.50;46.30;;;;;;5021919;28;20198;-47
2021/09/23 08:19:00;;;;;;;6.30;5.70;;;23.50;46.00;;;;;;5029180;28;20276;-51
2021/09/23 08:21:27;;;;;;;12.73;5.43;;;23.30;45.90;;;;;;5030722;28;20197;-47
2021/09/23 08:23:53;;;;;;;5.60;4.67;;;23.30;46.30;;;;;;5030537;28;20185;-52
2021/09/23 08:26:19;;;;;;;6.20;4.80;;;23.40;46.10;;;;;;5022554;28;21016;-47
2021/09/23 08:28:45;;;;;;;7.27;5.20;;;23.40;46.00;;;;;;5022999;28;20243;-47
2021/09/23 08:31:15;;;;;;;9.77;5.47;;;23.30;46.00;;;;;;5030633;28;20445;-50
2021/09/23 08:33:41;;;;;;;6.80;5.90;;;23.40;46.10;;;;;;5018299;28;20669;-51
2021/09/23 08:36:06;;;;;;;5.30;4.80;;;23.30;46.30;;;;;;5027925;28;20494;-50
2021/09/23 08:38:32;;;;;;;6.97;4.93;;;23.40;45.80;;;;;;5029930;28;20707;-50
2021/09/23 08:40:58;;;;;;;5.43;4.93;;;23.40;45.80;;;;;;5029791;28;20208;-50
2021/09/23 08:43:23;;;;;;;5.80;5.00;;;23.50;45.20;;;;;;5019640;28;20186;-51
2021/09/23 08:45:54;;;;;;;4.70;4.30;;;23.50;44.70;;;;;;5028096;28;20228;-49
2021/09/23 08:48:21;;;;;;;5.00;4.40;;;23.60;44.90;;;;;;5027340;28;20224;-51
2021/09/23 08:50:47;;;;;;;7.30;5.00;;;23.50;44.10;;;;;;5029613;28;20467;-48
2021/09/23 08:53:12;;;;;;;6.10;4.90;;;23.00;45.30;;;;;;5025965;28;20478;-49
2021/09/23 08:55:38;;;;;;;6.20;4.47;;;23.30;45.10;;;;;;5028525;28;20998;-51
2021/09/23 08:58:06;;;;;;;6.37;4.40;;;23.40;46.10;;;;;;5020937;28;20226;-48
2021/09/23 09:00:34;;;;;;;5.27;4.43;;;23.50;45.00;;;;;;5027960;28;20259;-50
2021/09/23 09:03:08;;;;;;;5.13;4.57;;;23.70;44.10;;;;;;5027745;28;20472;-50
2021/09/23 09:05:37;;;;;;;5.77;4.33;;;23.80;43.80;;;;;;5026412;28;20804;-47
2021/09/23 09:08:05;;;;;;;4.90;4.43;;;23.80;43.50;;;;;;5027631;28;20808;-48
2021/09/23 09:10:31;;;;;;;6.03;4.20;;;23.80;43.50;;;;;;5025187;28;20497;-48
2021/09/23 09:13:04;;;;;;;6.23;4.90;;;23.90;43.30;;;;;;5026928;28;20481;-50
2021/09/23 09:15:50;;;;;;;4.93;3.93;;;24.00;43.10;;;;;;5022787;28;20803;-48
2021/09/23 09:18:21;;;;;;;4.43;4.03;;;24.20;43.30;;;;;;5023617;28;20483;-47
2021/09/23 09:20:57;;;;;;;5.03;4.40;;;24.40;43.20;;;;;;5029772;28;20436;-52
2021/09/23 09:23:31;;;;;;;3.77;3.47;;;24.40;42.40;;;;;;5032054;28;20888;-50
2021/09/23 09:25:56;;;;;;;4.47;4.00;;;24.50;42.30;;;;;;5028054;28;20439;-50
2021/09/23 09:28:22;;;;;;;5.20;3.80;;;24.60;43.40;;;;;;5028610;28;20429;-50
2021/09/23 09:30:56;;;;;;;6.03;3.17;;;24.70;41.60;;;;;;5023699;28;20181;-48
2021/09/23 09:33:33;;;;;;;4.20;3.87;;;24.70;41.30;;;;;;5032906;28;20666;-49
2021/09/23 09:35:59;;;;;;;4.77;3.17;;;24.80;41.80;;;;;;5026954;28;20455;-50
2021/09/23 09:38:26;;;;;;;3.77;3.47;;;24.90;42.00;;;;;;5028516;28;20884;-48
2021/09/23 09:40:55;;;;;;;3.50;3.20;;;25.10;41.00;;;;;;5028947;28;20613;-48
2021/09/23 09:43:21;;;;;;;4.77;3.70;;;25.20;40.60;;;;;;5029582;28;20486;-48
2021/09/23 09:45:48;;;;;;;3.40;2.87;;;25.20;40.50;;;;;;5029067;28;20428;-51
2021/09/23 09:48:14;;;;;;;3.03;2.80;;;25.30;40.30;;;;;;5026011;28;20436;-49
2021/09/23 09:50:44;;;;;;;3.43;2.63;;;25.40;39.50;;;;;;5027636;28;20428;-49
2021/09/23 09:53:12;;;;;;;3.10;2.70;;;25.20;39.30;;;;;;5024008;28;20186;-48
2021/09/23 09:55:40;;;;;;;3.73;2.97;;;25.20;39.00;;;;;;5027681;28;20455;-49
2021/09/23 09:58:07;;;;;;;3.37;3.07;;;24.80;40.20;;;;;;5026374;28;20845;-48
2021/09/23 10:00:34;;;;;;;7.23;2.93;;;25.00;40.40;;;;;;5025310;28;20845;-49
2021/09/23 10:03:00;;;;;;;3.33;3.07;;;25.10;40.00;;;;;;5033573;28;20440;-49
2021/09/23 10:05:26;;;;;;;3.60;3.30;;;25.00;39.20;;;;;;5033579;28;20501;-49
2021/09/23 10:07:54;;;;;;;4.80;4.10;;;25.10;40.10;;;;;;5029809;28;20615;-49
2021/09/23 10:10:24;;;;;;;3.23;2.37;;;25.50;39.80;;;;;;5034213;28;20431;-49
2021/09/23 10:12:54;;;;;;;4.67;3.10;;;25.60;39.40;;;;;;5027085;28;20499;-48
2021/09/23 10:15:19;;;;;;;3.13;2.77;;;25.80;39.30;;;;;;5028324;28;20485;-49
2021/09/23 10:17:48;;;;;;;3.33;3.03;;;26.00;38.80;;;;;;5031603;28;20480;-50
2021/09/23 10:20:17;;;;;;;3.30;2.80;;;26.10;38.10;;;;;;5032281;28;20565;-49
2021/09/23 10:22:42;;;;;;;2.80;2.60;;;26.40;38.00;;;;;;5033613;28;20444;-48
2021/09/23 10:25:12;;;;;;;3.50;2.57;;;26.70;38.10;;;;;;5031943;28;20936;-49
2021/09/23 10:27:58;;;;;;;3.60;3.30;;;26.80;38.80;;;;;;5030571;28;20201;-48
2021/09/23 10:30:32;;;;;;;4.00;3.60;;;26.70;37.40;;;;;;5030963;28;20443;-49
2021/09/23 10:32:59;;;;;;;4.13;3.03;;;26.50;37.80;;;;;;5031669;28;20436;-48
2021/09/23 10:35:26;;;;;;;5.13;3.40;;;26.30;38.60;;;;;;5032649;28;20446;-48
2021/09/23 10:37:54;;;;;;;6.80;3.17;;;26.40;38.40;;;;;;5030265;28;20578;-48
2021/09/23 10:40:22;;;;;;;5.37;2.87;;;26.70;38.80;;;;;;5031865;28;20432;-48
2021/09/23 10:42:50;;;;;;;3.80;3.00;;;27.00;38.60;;;;;;5029978;28;20432;-52
2021/09/23 10:45:17;;;;;;;2.57;2.37;;;27.20;37.50;;;;;;5031916;28;20858;-49
2021/09/23 10:47:46;;;;;;;3.40;2.60;;;27.30;38.20;;;;;;5032242;28;20922;-50
2021/09/23 10:50:13;;;;;;;6.03;2.87;;;27.40;36.90;;;;;;5031898;28;20940;-48
2021/09/23 10:52:40;;;;;;;4.50;3.00;;;27.50;36.80;;;;;;5035544;28;20830;-49
2021/09/23 10:55:07;;;;;;;2.87;2.67;;;27.70;37.20;;;;;;5023907;28;20466;-50
2021/09/23 10:57:33;;;;;;;3.70;2.90;;;27.80;36.90;;;;;;5032998;28;20772;-51
2021/09/23 11:00:07;;;;;;;4.83;4.37;;;27.90;36.60;;;;;;5033478;28;20450;-49
2021/09/23 11:02:33;;;;;;;3.27;2.87;;;28.00;36.30;;;;;;5032519;28;20195;-49
2021/09/23 11:05:02;;;;;;;3.23;2.83;;;28.20;36.20;;;;;;5031267;28;20432;-49
2021/09/23 11:07:29;;;;;;;6.37;3.40;;;28.20;35.50;;;;;;5032745;28;20443;-50
2021/09/23 11:10:10;;;;;;;2.80;2.60;;;28.40;36.10;;;;;;5031043;28;20490;-50
2021/09/23 11:12:37;;;;;;;3.47;3.10;;;28.50;35.70;;;;;;5030135;28;20539;-49
2021/09/23 11:15:04;;;;;;;7.50;2.83;;;28.50;36.00;;;;;;5026961;28;20490;-49
2021/09/23 11:17:31;;;;;;;3.00;2.70;;;28.70;35.20;;;;;;5031447;28;20518;-50
2021/09/23 11:20:04;;;;;;;3.37;3.07;;;28.80;35.00;;;;;;5031951;28;20448;-50
2021/09/23 11:22:41;;;;;;;2.97;2.70;;;28.70;34.70;;;;;;5027539;28;21435;-48
2021/09/23 11:25:11;;;;;;;3.27;2.70;;;28.40;35.80;;;;;;5031946;28;20497;-51
2021/09/23 11:27:39;;;;;;;3.80;3.03;;;28.50;36.10;;;;;;5023900;28;20502;-50
2021/09/23 11:30:08;;;;;;;3.00;2.80;;;28.80;34.80;;;;;;5032123;28;20420;-50
2021/09/23 11:32:50;;;;;;;3.00;2.63;;;29.10;35.20;;;;;;5032042;28;20458;-49
2021/09/23 11:35:19;;;;;;;3.30;3.10;;;29.30;34.70;;;;;;5029596;28;20954;-49
2021/09/23 11:37:45;;;;;;;4.73;2.97;;;29.30;34.60;;;;;;5034857;28;20482;-49
2021/09/23 11:40:12;;;;;;;4.80;2.67;;;29.30;34.50;;;;;;5031127;28;20534;-49
2021/09/23 11:42:43;;;;;;;4.27;3.20;;;29.40;35.00;;;;;;5027000;28;20932;-48
2021/09/23 11:45:09;;;;;;;3.70;2.60;;;29.50;34.70;;;;;;5033269;28;20463;-50
2021/09/23 11:47:48;;;;;;;3.60;2.70;;;29.50;34.50;;;;;;5032592;28;20983;-49
2021/09/23 11:50:24;;;;;;;2.93;2.73;;;29.50;34.50;;;;;;5029294;28;20656;-50
2021/09/23 11:53:03;;;;;;;2.50;2.30;;;29.60;34.70;;;;;;5027528;28;20444;-48
2021/09/23 11:55:29;;;;;;;3.03;2.83;;;29.80;35.40;;;;;;5020303;28;20988;-50
2021/09/23 11:58:21;;;;;;;2.90;2.60;;;29.90;34.60;;;;;;5029211;28;20476;-50
2021/09/23 12:00:49;;;;;;;2.83;2.63;;;30.10;34.30;;;;;;5024930;28;20206;-50
2021/09/23 12:03:16;;;;;;;3.03;2.73;;;30.20;34.40;;;;;;5028703;28;20444;-50
2021/09/23 12:05:43;;;;;;;3.23;2.63;;;30.00;33.20;;;;;;5027343;28;20465;-49
2021/09/23 12:08:16;;;;;;;3.73;2.50;;;30.00;33.40;;;;;;5027806;28;20424;-50
2021/09/23 12:10:49;;;;;;;2.83;2.63;;;30.10;34.40;;;;;;5026380;28;20495;-48
2021/09/23 12:13:26;;;;;;;2.80;2.40;;;30.30;33.90;;;;;;5030167;28;20444;-48
2021/09/23 12:15:54;;;;;;;3.37;3.07;;;30.50;33.70;;;;;;5031886;28;20435;-48
2021/09/23 12:18:22;;;;;;;6.07;2.83;;;30.30;32.50;;;;;;5027491;28;20524;-48
2021/09/23 12:20:51;;;;;;;3.50;2.63;;;30.20;32.80;;;;;;5030189;28;20436;-50
2021/09/23 12:23:34;;;;;;;3.90;2.50;;;30.20;32.70;;;;;;5030304;28;20450;-48
2021/09/23 12:26:18;;;;;;;3.17;2.93;;;29.90;33.00;;;;;;5031380;28;20513;-49
2021/09/23 12:28:51;;;;;;;3.17;2.70;;;30.00;32.60;;;;;;5025179;28;20489;-47
2021/09/23 12:31:30;;;;;;;3.50;2.87;;;30.20;33.20;;;;;;5031243;28;20441;-48
2021/09/23 12:34:00;;;;;;;2.80;2.50;;;30.30;33.50;;;;;;5025428;28;20440;-47
2021/09/23 12:36:51;;;;;;;3.20;2.67;;;30.10;33.40;;;;;;5026133;28;20483;-47
2021/09/23 12:39:19;;;;;;;2.83;2.63;;;30.20;34.50;;;;;;5024270;28;20523;-48
2021/09/23 12:41:51;;;;;;;3.83;3.10;;;30.40;32.50;;;;;;5029190;28;20436;-48
2021/09/23 12:44:28;;;;;;;4.17;2.93;;;30.40;32.40;;;;;;5027687;28;20443;-48
2021/09/23 12:47:09;;;;;;;6.73;3.03;;;29.90;32.90;;;;;;5027164;28;20743;-47
2021/09/23 12:49:57;;;;;;;3.00;2.60;;;29.80;33.10;;;;;;5026510;28;20494;-47